Time;durP1;ratioP1;P1;durP2;ratioP2;P2;SDS_P1;SDS_P2;PMS_P1;PMS_P2;Temp;Humidity;BMP_temperature;BMP_pressure;BME280_temperature;BME280_humidity;BME280_pressure;Samples;Min_cycle;Max_cycle;Signal;HPM_P1;HPM_P2
2021/12/10 00:01:15;;;;;;;14.35;4.20;;;;;;;2.89;95.41;97384.59;5063908;28;20027;-67
2021/12/10 00:03:44;;;;;;;13.90;3.65;;;;;;;2.81;95.84;97386.41;5063767;28;20025;-67
2021/12/10 00:06:18;;;;;;;9.55;4.18;;;;;;;2.86;96.25;97383.75;5062628;28;20017;-67
2021/12/10 00:08:49;;;;;;;16.83;3.70;;;;;;;2.78;95.98;97376.03;5063853;28;20020;-67
2021/12/10 00:11:22;;;;;;;14.60;3.60;;;;;;;2.76;96.19;97366.53;5063897;28;20020;-67
2021/12/10 00:13:48;;;;;;;16.90;4.18;;;;;;;2.72;96.92;97354.47;5063525;28;20024;-67
2021/12/10 00:16:15;;;;;;;17.92;3.60;;;;;;;2.81;96.22;97354.38;5063739;28;20024;-67
2021/12/10 00:18:47;;;;;;;15.00;3.60;;;;;;;2.76;95.96;97348.34;5063350;28;20037;-67
2021/12/10 00:21:13;;;;;;;10.85;3.40;;;;;;;2.63;96.50;97339.81;5063191;28;20075;-67
2021/12/10 00:23:39;;;;;;;13.60;3.10;;;;;;;2.48;96.54;97326.97;5063660;28;20032;-67
2021/12/10 00:26:05;;;;;;;15.93;3.70;;;;;;;2.31;96.89;97315.84;5063662;28;20032;-67
2021/12/10 00:28:39;;;;;;;9.77;3.90;;;;;;;2.24;96.90;97303.78;5063698;28;20017;-67
2021/12/10 00:34:05;;;;;;;10.23;3.00;;;;;;;2.01;97.69;97290.13;5063197;28;20028;-67
2021/12/10 00:36:33;;;;;;;15.85;2.95;;;;;;;1.87;98.17;97276.44;5063466;28;20309;-67
2021/12/10 00:39:01;;;;;;;14.27;2.88;;;;;;;1.86;98.64;97264.31;5063274;28;20520;-67
2021/12/10 00:41:28;;;;;;;10.45;2.92;;;;;;;1.83;98.84;97269.50;5063522;28;20024;-67
2021/12/10 00:43:54;;;;;;;14.80;2.95;;;;;;;1.93;98.94;97260.81;5063396;28;20009;-67
2021/12/10 00:46:20;;;;;;;13.70;3.13;;;;;;;1.85;98.80;97247.03;5063325;28;20051;-67
2021/12/10 00:48:46;;;;;;;16.00;3.22;;;;;;;1.81;99.12;97250.53;5063121;28;20025;-67
2021/12/10 00:51:12;;;;;;;16.73;3.90;;;;;;;1.83;99.05;97243.56;5063393;28;20033;-67
2021/12/10 00:53:39;;;;;;;14.75;3.60;;;;;;;1.84;98.75;97237.53;5063138;28;20059;-67
2021/12/10 00:56:06;;;;;;;14.65;3.33;;;;;;;1.65;98.85;97228.16;5063291;28;20088;-67
2021/12/10 00:58:32;;;;;;;16.55;3.35;;;;;;;1.67;99.06;97221.22;5063211;28;20028;-67
2021/12/10 01:01:03;;;;;;;22.05;4.00;;;;;;;1.63;98.90;97215.22;5063041;28;20016;-67
2021/12/10 01:03:51;;;;;;;15.73;3.80;;;;;;;1.54;99.08;97209.22;5063046;28;20355;-67
2021/12/10 01:06:18;;;;;;;18.52;3.67;;;;;;;1.51;99.39;97204.94;5062032;28;20031;-67
2021/12/10 01:08:47;;;;;;;13.55;4.10;;;;;;;1.58;99.52;97201.41;5064484;28;20076;-67
2021/12/10 01:11:21;;;;;;;16.05;4.57;;;;;;;1.55;99.29;97190.22;5067005;28;20335;-67
2021/12/10 01:13:51;;;;;;;18.50;5.07;;;;;;;1.66;99.55;97193.59;5067137;28;20028;-67
2021/12/10 01:27:55;;;;;;;17.27;4.70;;;;;;;1.74;99.07;97152.91;5062458;28;20272;-67
2021/12/10 01:30:25;;;;;;;10.88;4.22;;;;;;;1.76;98.47;97138.16;5059578;28;20029;-67
2021/12/10 01:32:58;;;;;;;15.18;4.25;;;;;;;1.75;99.00;97139.06;5066683;28;20025;-67
2021/12/10 01:35:32;;;;;;;14.68;5.60;;;;;;;1.78;98.92;97136.44;5066620;28;20021;-67
2021/12/10 01:38:00;;;;;;;12.57;5.18;;;;;;;1.80;98.51;97134.66;5061571;28;20363;-67
2021/12/10 01:40:27;;;;;;;16.13;4.28;;;;;;;1.79;98.38;97132.97;5066686;28;20029;-67
2021/12/10 01:43:01;;;;;;;14.48;4.45;;;;;;;1.84;98.14;97136.38;5066825;28;20048;-67
2021/12/10 01:45:31;;;;;;;21.15;5.70;;;;;;;1.86;97.73;97126.84;5066389;28;20017;-67
2021/12/10 01:48:05;;;;;;;19.58;4.63;;;;;;;1.88;97.59;97117.31;5066674;28;20032;-67
2021/12/10 01:50:31;;;;;;;13.75;4.75;;;;;;;1.92;97.01;97111.22;5059123;28;20021;-67
2021/12/10 01:52:59;;;;;;;14.32;3.80;;;;;;;1.83;97.02;97101.78;5066304;28;20028;-67
2021/12/10 01:55:28;;;;;;;21.67;6.07;;;;;;;1.85;96.87;97086.22;5066192;28;20023;-67
2021/12/10 01:57:55;;;;;;;9.32;3.40;;;;;;;1.84;96.87;97084.50;5066464;28;20025;-67
2021/12/10 02:00:31;;;;;;;14.68;4.68;;;;;;;1.85;96.40;97076.72;5066143;28;20186;-67
2021/12/10 02:02:57;;;;;;;11.35;3.90;;;;;;;1.87;96.45;97063.72;5060465;28;20080;-67
2021/12/10 02:05:23;;;;;;;12.80;4.15;;;;;;;1.88;96.31;97065.44;5066197;28;20332;-67
2021/12/10 02:07:50;;;;;;;12.80;4.13;;;;;;;1.93;95.84;97053.28;5065943;28;20221;-67
2021/12/10 02:10:19;;;;;;;16.88;3.72;;;;;;;1.89;95.93;97036.88;5066072;28;20316;-67
2021/12/10 02:12:46;;;;;;;13.93;3.25;;;;;;;1.99;95.50;97024.66;5066064;28;20029;-67
2021/12/10 02:15:13;;;;;;;11.20;3.38;;;;;;;2.00;94.98;97008.25;5065733;28;20048;-67
2021/12/10 02:17:43;;;;;;;13.60;4.10;;;;;;;1.98;95.04;97004.78;5065715;28;20086;-67
2021/12/10 02:20:16;;;;;;;9.77;3.65;;;;;;;2.03;94.49;97003.00;5054902;28;20021;-67
2021/12/10 02:22:44;;;;;;;16.63;3.47;;;;;;;2.09;94.10;96997.75;5065787;28;20091;-67
2021/12/10 02:25:10;;;;;;;13.00;4.10;;;;;;;2.03;93.34;96997.81;5064964;28;20135;-67
2021/12/10 02:27:36;;;;;;;16.40;3.35;;;;;;;2.01;93.83;96997.84;5065772;28;20067;-67
2021/12/10 02:30:06;;;;;;;17.38;4.07;;;;;;;2.07;93.68;96994.31;5065609;28;20044;-67
2021/12/10 02:32:32;;;;;;;16.38;4.05;;;;;;;2.08;93.94;96991.69;5065572;28;20020;-67
2021/12/10 02:34:57;;;;;;;9.57;3.67;;;;;;;2.06;93.81;96995.19;5065596;28;20043;-67
2021/12/10 02:37:23;;;;;;;14.43;3.90;;;;;;;1.99;93.89;96980.56;5065642;28;20099;-67
2021/12/10 02:39:49;;;;;;;13.32;3.22;;;;;;;2.02;94.11;96970.13;5065293;28;20024;-67
2021/12/10 02:42:15;;;;;;;15.23;4.07;;;;;;;1.93;94.12;96962.50;5065495;28;20213;-67
2021/12/10 02:44:40;;;;;;;14.57;4.72;;;;;;;1.90;94.33;96949.56;5065296;28;20075;-67
2021/12/10 02:47:06;;;;;;;12.40;3.80;;;;;;;1.83;94.65;96943.59;5065588;28;20024;-67
2021/12/10 02:49:32;;;;;;;14.63;4.18;;;;;;;1.87;94.33;96944.41;5065406;28;20092;-67
2021/12/10 02:51:59;;;;;;;10.57;3.53;;;;;;;1.80;94.57;96941.03;5064798;28;20301;-67
2021/12/10 02:54:33;;;;;;;12.73;4.20;;;;;;;1.88;94.46;96952.19;5064756;28;20017;-67
2021/12/10 02:57:08;;;;;;;15.15;4.65;;;;;;;1.81;94.18;96954.88;5065368;28;20309;-67
2021/12/10 02:59:35;;;;;;;14.27;4.32;;;;;;;1.82;94.09;96952.25;5065471;28;20304;-67
2021/12/10 03:02:03;;;;;;;13.65;4.35;;;;;;;1.85;94.10;96941.84;5065113;28;20359;-67
2021/12/10 03:04:29;;;;;;;10.90;3.97;;;;;;;1.76;94.28;96934.16;5065650;28;20383;-67
2021/12/10 03:06:59;;;;;;;9.88;3.70;;;;;;;1.72;94.50;96939.41;5064987;28;20237;-67
2021/12/10 03:09:25;;;;;;;12.32;4.20;;;;;;;1.69;95.03;96935.13;5064971;28;20017;-67
2021/12/10 03:11:52;;;;;;;9.02;3.35;;;;;;;1.62;94.93;96930.03;5064757;28;20386;-67
2021/12/10 03:14:25;;;;;;;9.10;3.55;;;;;;;1.66;95.11;96934.28;5064756;28;20135;-67
2021/12/10 03:16:53;;;;;;;12.15;4.10;;;;;;;1.63;94.94;96921.38;5064684;28;20048;-67
2021/12/10 03:19:18;;;;;;;12.63;4.40;;;;;;;1.53;95.51;96914.56;5064692;28;20040;-67
2021/12/10 03:21:45;;;;;;;12.75;4.38;;;;;;;1.52;95.36;96911.13;5064719;28;20092;-67
2021/12/10 03:24:20;;;;;;;12.50;4.18;;;;;;;1.50;95.79;96906.84;5064617;28;20013;-67
2021/12/10 03:26:45;;;;;;;13.48;4.35;;;;;;;1.53;95.68;96901.63;5064649;28;20024;-67
2021/12/10 03:29:11;;;;;;;10.43;4.30;;;;;;;1.49;95.77;96899.94;5064588;28;20089;-67
2021/12/10 03:31:37;;;;;;;15.57;4.90;;;;;;;1.44;96.09;96897.41;5064081;28;20028;-67
2021/12/10 03:34:04;;;;;;;14.88;5.63;;;;;;;1.37;96.36;96894.88;5063129;28;20028;-67
2021/12/10 03:36:29;;;;;;;13.25;4.07;;;;;;;1.42;96.14;96893.09;5064616;28;20098;-67
2021/12/10 03:38:56;;;;;;;15.18;4.72;;;;;;;1.38;95.83;96886.22;5064340;28;20316;-67
2021/12/10 03:41:21;;;;;;;21.67;5.18;;;;;;;1.36;96.25;96880.22;5064346;28;20054;-67
2021/12/10 03:43:50;;;;;;;12.43;5.25;;;;;;;1.36;96.24;96864.69;5064314;28;20021;-67
2021/12/10 03:46:23;;;;;;;12.88;5.30;;;;;;;1.33;96.20;96862.13;5064069;28;20020;-67
2021/12/10 03:48:49;;;;;;;18.98;5.57;;;;;;;1.36;96.12;96856.91;5063413;28;20020;-67
2021/12/10 03:51:19;;;;;;;14.10;4.30;;;;;;;1.36;96.16;96852.56;5064010;28;20059;-67
2021/12/10 03:53:45;;;;;;;15.13;4.65;;;;;;;1.35;96.17;96849.97;5064073;28;20078;-67
2021/12/10 03:56:15;;;;;;;17.63;4.40;;;;;;;1.28;96.21;96844.03;5063931;28;20075;-67
2021/12/10 03:58:41;;;;;;;12.90;4.43;;;;;;;1.22;96.38;96843.22;5063946;28;20017;-67
2021/12/10 04:01:11;;;;;;;19.25;5.53;;;;;;;1.29;96.24;96850.06;5064008;28;20294;-67
2021/12/10 04:03:38;;;;;;;17.00;4.45;;;;;;;1.24;96.02;96841.50;5063949;28;20029;-67
2021/12/10 04:06:04;;;;;;;14.80;5.30;;;;;;;1.27;96.22;96828.50;5063954;28;20024;-67
2021/12/10 04:08:31;;;;;;;15.50;3.80;;;;;;;1.33;96.01;96818.91;5063724;28;20374;-67
2021/12/10 04:10:58;;;;;;;15.32;5.47;;;;;;;1.33;95.73;96816.31;5063933;28;20016;-67
2021/12/10 04:13:23;;;;;;;13.50;4.85;;;;;;;1.38;95.50;96808.50;5063790;28;20070;-67
2021/12/10 04:15:49;;;;;;;14.07;4.50;;;;;;;1.32;95.35;96804.25;5063781;28;20236;-67
2021/12/10 04:18:15;;;;;;;10.57;4.05;;;;;;;1.33;95.12;96815.47;5063610;28;20040;-67
2021/12/10 04:20:43;;;;;;;19.45;4.80;;;;;;;1.35;95.11;96793.84;5063821;28;20025;-68
2021/12/10 04:23:15;;;;;;;11.02;4.20;;;;;;;1.34;95.25;96788.69;5063718;28;20045;-68
2021/12/10 04:25:41;;;;;;;9.90;4.38;;;;;;;1.36;95.21;96785.19;5063384;28;20016;-68
2021/12/10 04:28:09;;;;;;;12.52;4.00;;;;;;;1.28;94.96;96780.97;5063595;28;20017;-68
2021/12/10 04:30:39;;;;;;;20.52;5.10;;;;;;;1.35;94.87;96777.44;5063603;28;20027;-68
2021/12/10 04:33:06;;;;;;;9.93;4.25;;;;;;;1.37;94.71;96770.50;5063497;28;20048;-68
2021/12/10 04:35:31;;;;;;;15.77;4.80;;;;;;;1.46;94.39;96760.00;5063456;28;20025;-68
2021/12/10 04:37:57;;;;;;;13.93;4.35;;;;;;;1.35;94.18;96751.50;5063287;28;20351;-68
2021/12/10 04:40:23;;;;;;;18.83;4.55;;;;;;;1.34;94.23;96744.63;5063393;28;20031;-68
2021/12/10 04:42:50;;;;;;;13.70;3.78;;;;;;;1.36;94.00;96742.88;5062534;28;20051;-68
2021/12/10 04:45:18;;;;;;;14.07;4.00;;;;;;;1.29;93.81;96728.28;5063099;28;20088;-68
2021/12/10 04:47:44;;;;;;;11.95;4.70;;;;;;;1.32;93.56;96730.81;5062223;28;20025;-68
2021/12/10 04:50:11;;;;;;;15.07;4.38;;;;;;;1.29;93.74;96725.69;5063138;28;20032;-68
2021/12/10 04:52:37;;;;;;;16.13;3.40;;;;;;;1.25;93.98;96713.66;5062953;28;20025;-68
2021/12/10 04:55:08;;;;;;;15.52;3.47;;;;;;;1.29;93.55;96710.13;5063210;28;20028;-68
2021/12/10 04:57:33;;;;;;;8.02;3.53;;;;;;;1.29;93.64;96707.53;5063354;28;20316;-68
2021/12/10 04:59:59;;;;;;;13.85;3.42;;;;;;;1.37;93.43;96687.56;5063126;28;20100;-68
2021/12/10 05:02:25;;;;;;;12.40;2.88;;;;;;;1.36;92.76;96689.28;5060638;28;20336;-68
2021/12/10 05:04:56;;;;;;;12.23;3.63;;;;;;;1.38;92.58;96686.69;5062184;28;20013;-68
2021/12/10 05:07:21;;;;;;;11.52;3.10;;;;;;;1.38;92.18;96684.09;5062374;28;20064;-68
2021/12/10 05:09:47;;;;;;;18.15;3.78;;;;;;;1.41;91.88;96665.91;5062074;28;20025;-68
2021/12/10 05:12:13;;;;;;;7.07;2.60;;;;;;;1.40;91.88;96670.25;5062170;28;20217;-68
2021/12/10 05:14:39;;;;;;;16.85;2.88;;;;;;;1.41;91.35;96664.19;5061757;28;20025;-68
2021/12/10 05:17:07;;;;;;;16.13;2.95;;;;;;;1.42;91.24;96659.84;5061775;28;20017;-68
2021/12/10 05:19:35;;;;;;;13.15;3.55;;;;;;;1.40;90.76;96653.84;5062303;28;20074;-68
2021/12/10 05:22:03;;;;;;;10.57;2.85;;;;;;;1.46;91.01;96661.53;5056486;28;20023;-68
2021/12/10 05:24:29;;;;;;;10.63;3.05;;;;;;;1.45;90.50;96645.13;5059365;28;20316;-68
2021/12/10 05:26:57;;;;;;;7.57;3.00;;;;;;;1.41;90.73;96646.03;5062056;28;20043;-68
2021/12/10 05:29:22;;;;;;;7.78;2.33;;;;;;;1.51;90.39;96638.97;5061688;28;20047;-68
2021/12/10 05:31:48;;;;;;;11.68;2.40;;;;;;;1.55;89.82;96635.47;5061848;28;20028;-68
2021/12/10 05:34:15;;;;;;;11.38;2.78;;;;;;;1.51;89.90;96634.66;5070546;28;20035;-68
2021/12/10 05:36:41;;;;;;;9.90;2.33;;;;;;;1.56;89.52;96627.66;5061953;28;20021;-68
2021/12/10 05:39:09;;;;;;;11.63;2.55;;;;;;;1.53;89.67;96621.66;5063268;28;20347;-66
2021/12/10 05:41:34;;;;;;;10.35;2.83;;;;;;;1.58;89.07;96615.50;5063323;28;20052;-66
2021/12/10 05:44:00;;;;;;;20.15;3.00;;;;;;;1.57;89.36;96608.63;5065670;28;20044;-66
2021/12/10 05:46:26;;;;;;;7.88;1.77;;;;;;;1.64;89.03;96606.78;5063264;28;20321;-66
2021/12/10 05:48:51;;;;;;;8.60;2.35;;;;;;;1.64;88.84;96593.81;5063307;28;20025;-66
2021/12/10 05:51:17;;;;;;;9.95;3.08;;;;;;;1.58;88.77;96594.78;5063233;28;20025;-66
2021/12/10 05:53:43;;;;;;;8.30;2.40;;;;;;;1.64;88.55;96599.00;5063394;28;20255;-66
2021/12/10 05:56:09;;;;;;;14.07;2.72;;;;;;;1.61;89.04;96578.31;5066507;28;20225;-66
2021/12/10 05:58:35;;;;;;;6.85;2.45;;;;;;;1.67;88.70;96591.16;5066837;28;20033;-66
2021/12/10 06:01:09;;;;;;;15.60;3.28;;;;;;;1.64;88.64;96573.06;5067042;28;20031;-66
2021/12/10 06:03:38;;;;;;;10.95;2.35;;;;;;;1.61;89.00;96579.19;5066751;28;20055;-66
2021/12/10 06:06:05;;;;;;;7.40;2.80;;;;;;;1.63;88.69;96571.38;5066716;28;20324;-66
2021/12/10 06:08:31;;;;;;;8.57;2.75;;;;;;;1.65;88.40;96564.44;5066616;28;20111;-66
2021/12/10 06:10:59;;;;;;;12.65;2.67;;;;;;;1.65;88.68;96559.25;5066669;28;20213;-66
2021/12/10 06:13:25;;;;;;;14.38;2.63;;;;;;;1.66;88.46;96555.75;5066788;28;20024;-66
2021/12/10 06:15:51;;;;;;;11.00;2.47;;;;;;;1.65;88.37;96551.47;5066494;28;20044;-66
2021/12/10 06:18:17;;;;;;;11.25;2.60;;;;;;;1.61;89.01;96552.38;5066291;28;20044;-66
2021/12/10 06:20:46;;;;;;;6.50;2.60;;;;;;;1.60;88.99;96545.50;5066400;28;20212;-66
2021/12/10 06:23:12;;;;;;;9.38;2.75;;;;;;;1.61;89.08;96547.19;5066361;28;20027;-66
2021/12/10 06:25:38;;;;;;;8.00;2.28;;;;;;;1.50;89.33;96539.63;5066314;28;20021;-66
2021/12/10 06:28:05;;;;;;;18.27;4.03;;;;;;;1.53;89.42;96549.09;5066272;28;20383;-66
2021/12/10 06:30:34;;;;;;;8.75;2.65;;;;;;;1.56;89.32;96541.25;5066217;28;20321;-66
2021/12/10 06:33:01;;;;;;;20.00;3.60;;;;;;;1.55;89.41;96547.34;5065106;28;20067;-66
2021/12/10 06:35:30;;;;;;;7.68;3.08;;;;;;;1.62;89.67;96538.56;5065306;28;20351;-66
2021/12/10 06:37:57;;;;;;;9.20;3.20;;;;;;;1.58;89.40;96552.47;5066050;28;20265;-66
2021/12/10 06:40:25;;;;;;;6.88;2.42;;;;;;;1.53;89.78;96549.09;5066101;28;20036;-66
2021/12/10 06:42:51;;;;;;;14.38;2.63;;;;;;;1.51;89.69;96556.03;5065997;28;20032;-66
2021/12/10 06:45:20;;;;;;;9.10;2.40;;;;;;;1.54;89.63;96550.78;5065928;28;20024;-66
2021/12/10 06:47:48;;;;;;;7.90;2.30;;;;;;;1.53;89.38;96538.72;5066102;28;20033;-66
2021/12/10 06:50:18;;;;;;;10.75;2.88;;;;;;;1.53;89.78;96539.59;5066091;28;20247;-66
2021/12/10 06:52:43;;;;;;;9.25;3.55;;;;;;;1.54;89.10;96550.78;5065760;28;20028;-66
2021/12/10 06:55:10;;;;;;;12.70;2.97;;;;;;;1.58;89.42;96542.09;5065676;28;20025;-66
2021/12/10 06:57:37;;;;;;;12.10;2.50;;;;;;;1.54;89.40;96546.47;5065772;28;20339;-66
2021/12/10 07:00:14;;;;;;;6.15;2.92;;;;;;;1.58;88.80;96542.09;5065903;28;20313;-66
2021/12/10 07:02:39;;;;;;;10.52;2.95;;;;;;;1.58;89.22;96542.94;5065618;28;20029;-66
2021/12/10 07:05:07;;;;;;;10.82;3.00;;;;;;;1.56;88.79;96533.47;5065516;28;20031;-66
2021/12/10 07:07:33;;;;;;;11.20;2.63;;;;;;;1.62;88.69;96535.97;5064776;28;20236;-66
2021/12/10 07:10:00;;;;;;;12.75;3.60;;;;;;;1.56;89.13;96533.47;5078376;28;20055;-66
2021/12/10 07:12:26;;;;;;;6.22;2.67;;;;;;;1.53;88.90;96533.53;5084530;28;20066;-66
2021/12/10 07:14:51;;;;;;;11.30;3.30;;;;;;;1.55;89.21;96531.78;5084405;28;20028;-66
2021/12/10 07:17:17;;;;;;;8.32;3.15;;;;;;;1.51;89.60;96536.16;5084498;28;20052;-66
2021/12/10 07:19:43;;;;;;;10.55;2.88;;;;;;;1.58;89.12;96529.16;5084421;28;20020;-66
2021/12/10 07:22:09;;;;;;;10.80;3.40;;;;;;;1.57;89.17;96519.63;5084322;28;20065;-66
2021/12/10 07:24:34;;;;;;;13.35;3.17;;;;;;;1.61;89.38;96531.66;5083860;28;20024;-66
2021/12/10 07:27:00;;;;;;;10.70;3.25;;;;;;;1.59;88.99;96525.66;5084225;28;20036;-66
2021/12/10 07:29:26;;;;;;;12.13;4.78;;;;;;;1.65;88.90;96525.56;5084161;28;20069;-66
2021/12/10 07:31:52;;;;;;;7.47;3.03;;;;;;;1.75;88.83;96525.34;5084445;28;20177;-66
2021/12/10 07:34:17;;;;;;;13.55;3.33;;;;;;;1.72;88.62;96519.38;5084004;28;20031;-66
2021/12/10 07:36:43;;;;;;;12.70;2.92;;;;;;;1.78;88.92;96519.25;5083625;28;20044;-66
2021/12/10 07:39:09;;;;;;;12.60;3.08;;;;;;;1.74;88.81;96512.41;5080748;28;20103;-66
2021/12/10 07:41:36;;;;;;;6.30;2.60;;;;;;;1.81;88.92;96509.66;5042713;28;20022;-66
2021/12/10 07:44:03;;;;;;;8.57;3.63;;;;;;;1.79;88.65;96507.97;5043959;28;20402;-66
2021/12/10 07:46:28;;;;;;;20.05;3.58;;;;;;;1.87;88.42;96513.91;5063300;28;20096;-66
2021/12/10 07:48:55;;;;;;;8.63;2.60;;;;;;;1.77;88.73;96514.97;5069674;28;20464;-66
2021/12/10 07:51:27;;;;;;;11.48;3.17;;;;;;;1.76;88.77;96505.44;5063770;28;20025;-66
2021/12/10 07:53:57;;;;;;;11.77;4.07;;;;;;;1.80;88.89;96499.31;5063997;28;20025;-66
2021/12/10 07:56:24;;;;;;;9.00;3.47;;;;;;;1.80;89.46;96496.72;5063669;28;20025;-66
2021/12/10 07:58:50;;;;;;;11.15;3.17;;;;;;;1.77;89.17;96497.63;5063634;28;20084;-66
2021/12/10 08:01:18;;;;;;;11.32;3.25;;;;;;;1.78;89.09;96490.72;5063608;28;20031;-66
2021/12/10 08:03:45;;;;;;;13.88;3.00;;;;;;;1.82;89.81;96489.78;5063076;28;20062;-66
2021/12/10 08:06:11;;;;;;;8.50;3.05;;;;;;;1.85;89.73;96489.72;5063507;28;20092;-66
2021/12/10 08:08:37;;;;;;;16.52;4.03;;;;;;;1.82;89.99;96487.19;5063634;28;20021;-66
2021/12/10 08:11:03;;;;;;;17.10;4.00;;;;;;;1.79;90.59;96474.28;5064397;28;20324;-66
2021/12/10 08:13:29;;;;;;;15.32;3.53;;;;;;;1.76;90.57;96471.75;5064318;28;20080;-66
2021/12/10 08:15:54;;;;;;;9.32;3.60;;;;;;;1.82;90.83;96471.63;5067004;28;20221;-66
2021/12/10 08:18:20;;;;;;;12.25;3.30;;;;;;;1.78;90.66;96468.22;5074330;28;20240;-66
2021/12/10 08:20:46;;;;;;;8.23;3.15;;;;;;;1.85;90.93;96463.78;5082318;28;20028;-66
2021/12/10 08:23:12;;;;;;;11.68;4.05;;;;;;;1.76;90.73;96463.97;5084182;28;20059;-66
2021/12/10 08:25:37;;;;;;;11.82;3.72;;;;;;;1.83;91.42;96457.75;5084125;28;20020;-66
2021/12/10 08:28:04;;;;;;;12.55;3.53;;;;;;;1.92;91.21;96460.19;5084049;28;20083;-66
2021/12/10 08:30:32;;;;;;;19.17;6.45;;;;;;;1.91;91.40;96455.88;5084083;28;20328;-66
2021/12/10 08:32:58;;;;;;;11.68;4.60;;;;;;;1.82;91.84;96453.47;5083996;28;20030;-66
2021/12/10 08:35:29;;;;;;;14.90;2.80;;;;;;;1.61;92.59;96453.88;5083930;28;20024;-66
2021/12/10 08:37:55;;;;;;;9.35;4.00;;;;;;;1.60;93.52;96453.03;5064015;28;20394;-66
2021/12/10 08:40:29;;;;;;;15.60;3.88;;;;;;;1.43;94.60;96434.34;5063903;28;20043;-66
2021/12/10 08:42:55;;;;;;;13.60;3.22;;;;;;;1.53;94.91;96440.22;5063761;28;20277;-66
2021/12/10 08:45:22;;;;;;;14.85;4.63;;;;;;;1.51;95.62;96441.97;5069825;28;20035;-66
2021/12/10 08:47:49;;;;;;;8.85;3.55;;;;;;;1.57;95.69;96432.38;5073501;28;20047;-66
2021/12/10 08:50:18;;;;;;;12.70;4.68;;;;;;;1.43;96.33;96438.69;5071960;28;20274;-66
2021/12/10 08:52:44;;;;;;;7.68;3.72;;;;;;;1.41;97.00;96432.69;5071925;28;20017;-66
2021/12/10 08:55:11;;;;;;;14.70;4.20;;;;;;;1.40;97.77;96424.06;5073397;28;20083;-66
2021/12/10 08:57:37;;;;;;;14.27;6.03;;;;;;;1.52;97.81;96428.16;5070591;28;20044;-66
2021/12/10 09:00:07;;;;;;;6.82;3.30;;;;;;;1.44;97.51;96424.84;5074482;28;20024;-66
2021/12/10 09:02:34;;;;;;;9.52;3.92;;;;;;;1.48;98.15;96426.50;5068094;28;20013;-66
2021/12/10 09:05:00;;;;;;;10.50;3.70;;;;;;;1.51;97.84;96434.22;5066555;28;20316;-66
2021/12/10 09:07:25;;;;;;;13.98;4.47;;;;;;;1.46;98.17;96413.56;5069603;28;20032;-66
2021/12/10 09:09:51;;;;;;;16.73;5.07;;;;;;;1.52;98.24;96428.16;5062741;28;20028;-66
2021/12/10 09:12:20;;;;;;;11.07;4.30;;;;;;;1.56;97.83;96422.03;5062711;28;20029;-66
2021/12/10 09:14:49;;;;;;;11.73;4.93;;;;;;;1.58;97.72;96428.06;5079471;28;20189;-66
2021/12/10 09:17:20;;;;;;;7.70;4.35;;;;;;;1.58;97.87;96428.06;5082582;28;20115;-66
2021/12/10 09:19:47;;;;;;;6.85;2.80;;;;;;;1.60;97.77;96418.47;5082264;28;20051;-66
2021/12/10 09:22:12;;;;;;;11.75;3.90;;;;;;;1.65;97.76;96409.72;5082951;28;20270;-66
2021/12/10 09:24:39;;;;;;;6.07;3.10;;;;;;;1.54;98.12;96410.81;5082917;28;20020;-66
2021/12/10 09:27:05;;;;;;;8.20;3.65;;;;;;;1.65;98.14;96406.31;5082611;28;20025;-66
2021/12/10 09:29:35;;;;;;;7.80;3.28;;;;;;;1.61;98.16;96412.41;5083811;28;20335;-66
2021/12/10 09:32:06;;;;;;;6.70;2.70;;;;;;;1.55;98.37;96415.16;5067735;28;20063;-66
2021/12/10 09:34:31;;;;;;;7.30;3.13;;;;;;;1.60;99.12;96408.13;5066284;28;20033;-66
2021/12/10 09:36:57;;;;;;;6.30;3.22;;;;;;;1.71;98.66;96398.41;5068789;28;20218;-66
2021/12/10 09:39:23;;;;;;;6.35;2.88;;;;;;;1.67;98.51;96401.91;5076878;28;20031;-66
2021/12/10 09:41:50;;;;;;;7.78;3.63;;;;;;;1.71;98.43;96408.78;5075530;28;20054;-66
2021/12/10 09:44:17;;;;;;;7.28;3.22;;;;;;;1.60;98.59;96395.16;5076898;28;20041;-66
2021/12/10 09:46:43;;;;;;;4.78;2.63;;;;;;;1.70;98.80;96404.44;5075769;28;20083;-66
2021/12/10 09:49:10;;;;;;;6.32;2.67;;;;;;;1.66;99.03;96400.22;5076558;28;20023;-66
2021/12/10 09:51:41;;;;;;;6.25;3.67;;;;;;;1.65;99.15;96395.94;5072053;28;20071;-66
2021/12/10 09:54:11;;;;;;;11.52;3.40;;;;;;;1.82;99.18;96396.44;5071583;28;20033;-66
2021/12/10 09:57:04;;;;;;;11.30;5.28;;;;;;;1.86;98.63;96392.88;5076675;28;20036;-66
2021/12/10 09:59:32;;;;;;;17.83;7.88;;;;;;;1.69;99.02;96389.78;5060396;28;20042;-66
2021/12/10 10:01:59;;;;;;;16.35;6.70;;;;;;;1.66;98.83;96382.06;5076436;28;20078;-66
2021/12/10 10:04:27;;;;;;;24.40;10.13;;;;;;;1.75;98.83;96380.16;5079387;28;20350;-66
2021/12/10 10:06:58;;;;;;;6.07;3.00;;;;;;;1.63;98.72;96390.78;5085795;28;20028;-66
2021/12/10 10:09:26;;;;;;;20.55;9.23;;;;;;;1.63;99.02;96379.53;5085787;28;20434;-66
2021/12/10 10:12:07;;;;;;;7.07;3.55;;;;;;;1.63;99.03;96380.41;5085279;28;20095;-66
2021/12/10 10:14:33;;;;;;;23.88;11.82;;;;;;;1.65;99.36;96373.44;5082076;28;20024;-66
2021/12/10 10:16:59;;;;;;;7.80;4.32;;;;;;;1.71;99.03;96375.06;5076459;28;20377;-66
2021/12/10 10:19:26;;;;;;;6.80;3.53;;;;;;;1.70;99.22;96370.75;5073367;28;20052;-66
2021/12/10 10:21:55;;;;;;;6.10;3.63;;;;;;;1.69;99.33;96369.06;5065713;28;20083;-66
2021/12/10 10:24:24;;;;;;;4.43;3.05;;;;;;;1.69;99.31;96369.06;5083299;28;20044;-66
2021/12/10 10:26:55;;;;;;;14.27;8.45;;;;;;;1.75;99.64;96358.56;5085384;28;20020;-66
2021/12/10 10:29:24;;;;;;;5.25;2.88;;;;;;;1.81;99.15;96361.84;5085348;28;20028;-66
2021/12/10 10:31:57;;;;;;;19.55;8.73;;;;;;;1.95;99.04;96361.56;5085596;28;20269;-67
2021/12/10 10:34:25;;;;;;;4.82;2.55;;;;;;;1.80;98.84;96356.69;5085234;28;20028;-66
2021/12/10 10:36:50;;;;;;;7.40;3.25;;;;;;;1.86;99.04;96351.38;5084865;28;20194;-66
2021/12/10 10:39:24;;;;;;;5.55;3.08;;;;;;;1.91;98.74;96350.41;5085463;28;20308;-66
2021/12/10 10:41:54;;;;;;;5.82;3.60;;;;;;;2.00;98.81;96344.16;5084257;28;20020;-66
2021/12/10 10:44:20;;;;;;;6.22;2.67;;;;;;;2.05;98.01;96347.50;5085117;28;20047;-66
2021/12/10 10:46:47;;;;;;;4.40;2.53;;;;;;;2.12;98.01;96341.31;5085086;28;20324;-66
2021/12/10 10:49:43;;;;;;;5.22;2.80;;;;;;;2.18;97.62;96343.72;5085049;28;20066;-66
2021/12/10 10:52:31;;;;;;;5.35;2.92;;;;;;;2.21;97.76;96341.06;5084954;28;20021;-66
2021/12/10 10:55:10;;;;;;;5.68;2.80;;;;;;;2.07;97.33;96332.75;5084806;28;20036;-66
2021/12/10 10:57:38;;;;;;;5.53;3.00;;;;;;;2.08;97.37;96334.44;5081720;28;20293;-66
2021/12/10 11:00:17;;;;;;;6.07;2.33;;;;;;;2.27;96.94;96332.31;5074660;28;20424;-66
2021/12/10 11:02:53;;;;;;;4.93;2.92;;;;;;;2.28;96.84;96336.59;5065110;28;20024;-66
2021/12/10 11:05:23;;;;;;;6.72;2.75;;;;;;;2.40;96.67;96324.16;5064662;28;20021;-66
2021/12/10 11:07:52;;;;;;;3.88;2.33;;;;;;;2.33;96.20;96326.94;5064668;28;20021;-66
2021/12/10 11:10:45;;;;;;;3.58;2.40;;;;;;;2.25;95.93;96330.56;5064349;28;20100;-66
2021/12/10 11:13:20;;;;;;;4.13;2.40;;;;;;;2.18;95.80;96330.75;5062758;28;20035;-65
2021/12/10 11:15:54;;;;;;;3.00;2.10;;;;;;;2.27;96.84;96327.94;5064037;28;20324;-65
2021/12/10 11:18:20;;;;;;;3.88;2.60;;;;;;;2.27;96.43;96325.34;5064301;28;20052;-65
2021/12/10 11:20:45;;;;;;;3.55;2.58;;;;;;;2.38;96.48;96323.38;5064341;28;20088;-65
2021/12/10 11:23:12;;;;;;;4.63;2.80;;;;;;;2.43;96.07;96329.28;5064321;28;20052;-65
2021/12/10 11:25:48;;;;;;;5.18;3.20;;;;;;;2.38;96.30;96320.78;5064229;28;20017;-65
2021/12/10 11:28:19;;;;;;;6.55;2.70;;;;;;;2.31;96.49;96324.38;5064330;28;20262;-65
2021/12/10 11:30:50;;;;;;;3.55;2.72;;;;;;;2.49;96.69;96321.34;5063827;28;20324;-65
2021/12/10 11:33:22;;;;;;;4.13;2.97;;;;;;;2.39;96.13;96312.09;5064232;28;20092;-65
2021/12/10 11:35:56;;;;;;;5.22;2.95;;;;;;;2.26;96.47;96308.09;5063994;28;20033;-65
2021/12/10 11:38:31;;;;;;;6.00;3.58;;;;;;;2.33;96.55;96317.41;5064063;28;20028;-65
2021/12/10 11:41:16;;;;;;;8.18;4.25;;;;;;;2.39;97.08;96306.03;5065946;28;20385;-65
2021/12/10 11:49:38;;;;;;;7.85;4.03;;;;;;;2.44;97.16;96307.66;5056056;28;20037;-65
2021/12/10 11:52:16;;;;;;;4.30;3.10;;;;;;;2.58;96.88;96308.16;5062959;28;20023;-65
2021/12/10 11:54:45;;;;;;;4.45;3.13;;;;;;;2.52;96.62;96310.88;5062875;28;20029;-65
2021/12/10 11:57:18;;;;;;;4.38;3.05;;;;;;;2.48;97.12;96301.47;5062896;28;20005;-65
2021/12/10 11:59:57;;;;;;;5.57;3.17;;;;;;;2.47;97.00;96306.72;5063021;28;20052;-65
2021/12/10 12:02:32;;;;;;;6.95;3.42;;;;;;;2.53;96.92;96303.97;5062991;28;20021;-65